Time;durP1;ratioP1;P1;durP2;ratioP2;P2;SDS_P1;SDS_P2;PMS_P1;PMS_P2;Temp;Humidity;BMP_temperature;BMP_pressure;BME280_temperature;BME280_humidity;BME280_pressure;Samples;Min_cycle;Max_cycle;Signal;HPM_P1;HPM_P2
2022/11/20 00:01:17;;;;;;;75.08;35.35;;;;;;;-5.63;75.72;100196.35;1856880;76;25626;-63
2022/11/20 00:03:45;;;;;;;72.65;34.48;;;;;;;-5.65;75.72;100191.80;1841529;77;25657;-63
2022/11/20 00:06:15;;;;;;;70.00;33.73;;;;;;;-5.66;75.59;100194.12;1867312;76;27441;-59
2022/11/20 00:08:43;;;;;;;75.87;34.88;;;;;;;-5.69;75.61;100195.84;1856256;76;25709;-61
2022/11/20 00:11:17;;;;;;;75.37;35.13;;;;;;;-5.73;75.59;100199.91;1857716;76;25562;-62
2022/11/20 00:13:45;;;;;;;75.45;35.30;;;;;;;-5.75;75.66;100209.33;1786838;79;25764;-64
2022/11/20 00:16:16;;;;;;;77.67;34.75;;;;;;;-5.79;75.57;100200.71;1864048;76;25446;-63
2022/11/20 00:18:42;;;;;;;80.90;35.48;;;;;;;-5.86;75.68;100204.14;1867310;76;28080;-63
2022/11/20 00:21:13;;;;;;;82.35;35.78;;;;;;;-5.87;75.79;100198.59;1777121;79;25812;-63
2022/11/20 00:23:39;;;;;;;74.35;34.48;;;;;;;-5.89;75.86;100201.11;1864541;76;25529;-63
2022/11/20 00:26:09;;;;;;;77.03;34.53;;;;;;;-5.95;75.87;100196.16;1847800;76;25579;-63
2022/11/20 00:28:35;;;;;;;80.70;35.65;;;;;;;-5.95;76.00;100204.57;1849748;76;25790;-63
2022/11/20 00:31:09;;;;;;;74.12;33.95;;;;;;;-5.97;76.12;100201.37;1857740;76;27511;-63
2022/11/20 00:33:36;;;;;;;74.77;34.05;;;;;;;-5.97;76.22;100197.42;1847994;76;25695;-63
2022/11/20 00:36:10;;;;;;;75.80;34.88;;;;;;;-6.01;76.23;100192.55;1877813;76;25429;-63
2022/11/20 00:38:37;;;;;;;77.53;34.15;;;;;;;-6.01;76.34;100196.50;1799072;79;25485;-62
2022/11/20 00:41:07;;;;;;;82.45;35.17;;;;;;;-6.01;76.32;100199.62;1804951;78;25834;-61
2022/11/20 00:43:35;;;;;;;74.62;35.25;;;;;;;-6.02;76.35;100200.13;1877337;75;28117;-62
2022/11/20 00:46:17;;;;;;;69.00;32.53;;;;;;;-6.02;76.33;100196.70;1857426;76;25365;-63
2022/11/20 00:48:46;;;;;;;80.28;35.17;;;;;;;-6.03;76.43;100193.27;1850191;76;25725;-63
2022/11/20 00:51:16;;;;;;;75.62;33.42;;;;;;;-6.06;76.46;100190.20;1858432;76;25876;-63
2022/11/20 00:53:44;;;;;;;75.57;34.13;;;;;;;-6.08;76.44;100193.06;1847802;76;25935;-63
2022/11/20 00:56:14;;;;;;;73.92;33.85;;;;;;;-6.09;76.42;100187.98;1859713;76;28045;-63
2022/11/20 00:58:44;;;;;;;80.07;35.13;;;;;;;-6.10;76.58;100191.62;1866523;76;25391;-63
2022/11/20 01:01:18;;;;;;;69.30;34.38;;;;;;;-6.11;76.60;100196.58;1798117;79;25532;-63
2022/11/20 01:03:48;;;;;;;72.15;34.55;;;;;;;-6.13;76.64;100192.85;1877080;76;27728;-64
2022/11/20 01:06:22;;;;;;;73.35;32.78;;;;;;;-6.16;76.74;100183.20;1861268;76;25603;-62
2022/11/20 01:08:51;;;;;;;76.33;33.78;;;;;;;-6.15;76.76;100180.37;1847615;76;27439;-62
2022/11/20 01:11:25;;;;;;;79.45;33.80;;;;;;;-6.14;76.90;100189.91;1862744;76;25906;-62
2022/11/20 01:13:54;;;;;;;76.20;34.13;;;;;;;-6.12;77.05;100179.17;1869067;76;25810;-62
2022/11/20 01:16:28;;;;;;;77.82;34.45;;;;;;;-6.12;77.14;100173.39;1798045;78;25782;-62
2022/11/20 01:18:59;;;;;;;77.45;35.20;;;;;;;-6.11;77.16;100164.97;1870830;76;25520;-62
2022/11/20 01:21:30;;;;;;;81.00;35.10;;;;;;;-6.11;77.05;100172.39;1866079;75;28054;-62
2022/11/20 01:23:58;;;;;;;71.45;36.20;;;;;;;-6.12;77.12;100166.80;1854866;76;25395;-62
2022/11/20 01:26:29;;;;;;;80.03;36.80;;;;;;;-6.12;76.90;100167.32;1855067;76;25486;-62
2022/11/20 01:28:57;;;;;;;86.40;37.00;;;;;;;-6.12;76.96;100162.05;1851100;76;25705;-63
2022/11/20 01:31:28;;;;;;;81.02;37.30;;;;;;;-6.12;77.02;100164.17;1848407;76;25499;-63
2022/11/20 01:33:58;;;;;;;90.42;40.43;;;;;;;-6.13;76.92;100153.35;1854135;76;27500;-63
2022/11/20 01:36:28;;;;;;;86.22;37.95;;;;;;;-6.14;76.87;100160.13;1849079;76;25399;-63
2022/11/20 01:38:58;;;;;;;87.88;39.00;;;;;;;-6.15;76.89;100157.98;1821863;76;25609;-63
2022/11/20 01:44:17;;;;;;;90.07;38.05;;;;;;;-6.18;76.77;100161.53;1851197;76;25501;-63
2022/11/20 01:46:57;;;;;;;89.28;37.48;;;;;;;-6.26;76.57;100158.09;1847680;76;27528;-63
2022/11/20 01:49:28;;;;;;;81.75;37.10;;;;;;;-6.29;76.74;100162.44;1860756;76;25368;-63
2022/11/20 01:52:00;;;;;;;81.32;36.38;;;;;;;-6.32;76.74;100155.45;1857775;76;25741;-64
2022/11/20 01:54:38;;;;;;;84.40;36.38;;;;;;;-6.34;76.66;100163.55;1850508;76;25754;-63
2022/11/20 01:57:07;;;;;;;80.00;34.80;;;;;;;-6.38;76.79;100154.44;1857812;76;25387;-63
2022/11/20 01:59:36;;;;;;;76.62;36.05;;;;;;;-6.40;77.04;100155.95;1846925;76;27602;-63
2022/11/20 02:02:03;;;;;;;75.72;35.08;;;;;;;-6.43;77.09;100147.66;1857767;76;25345;-63
2022/11/20 02:04:29;;;;;;;83.27;37.38;;;;;;;-6.43;77.25;100142.39;1862073;76;25515;-63
2022/11/20 02:07:00;;;;;;;81.87;35.73;;;;;;;-6.42;77.43;100141.36;1837421;75;25563;-63
2022/11/20 02:09:28;;;;;;;78.90;34.63;;;;;;;-6.40;77.61;100140.16;1852980;76;25681;-62
2022/11/20 02:11:55;;;;;;;75.15;36.13;;;;;;;-6.39;77.68;100137.81;1859252;76;27606;-63
2022/11/20 02:14:23;;;;;;;76.85;36.23;;;;;;;-6.37;77.96;100132.36;1801095;79;26086;-63
2022/11/20 02:16:51;;;;;;;70.87;33.28;;;;;;;-6.32;78.12;100129.13;1858964;76;25448;-63
2022/11/20 02:19:23;;;;;;;75.85;32.83;;;;;;;-6.29;78.26;100121.63;1867898;76;26042;-63
2022/11/20 02:21:58;;;;;;;63.38;29.67;;;;;;;-6.25;78.47;100127.30;1847828;76;25837;-63
2022/11/20 02:24:24;;;;;;;74.17;32.38;;;;;;;-6.21;78.75;100130.65;1841213;77;27483;-63
2022/11/20 02:27:10;;;;;;;86.65;34.35;;;;;;;-6.16;78.88;100124.78;1861910;76;25436;-63
2022/11/20 02:29:53;;;;;;;67.67;31.50;;;;;;;-6.12;78.92;100128.63;1864095;76;25880;-62
2022/11/20 02:32:31;;;;;;;66.72;32.83;;;;;;;-6.08;78.83;100133.80;1860657;76;25528;-63
2022/11/20 02:34:58;;;;;;;65.08;31.55;;;;;;;-6.02;78.74;100136.92;1857747;76;25529;-63
2022/11/20 02:37:30;;;;;;;80.30;35.33;;;;;;;-5.98;78.73;100144.42;1851483;76;27441;-63
2022/11/20 02:39:57;;;;;;;78.57;34.23;;;;;;;-5.97;78.54;100140.78;1855793;76;25376;-63
2022/11/20 02:42:24;;;;;;;72.90;32.03;;;;;;;-5.97;78.59;100140.27;1841625;76;25516;-63
2022/11/20 02:44:50;;;;;;;80.70;36.28;;;;;;;-5.98;78.64;100145.22;1848240;76;25749;-64
2022/11/20 02:47:16;;;;;;;78.55;35.52;;;;;;;-5.97;78.63;100145.54;1860718;76;25431;-64
2022/11/20 02:49:42;;;;;;;78.03;34.90;;;;;;;-5.98;78.44;100147.05;1798216;79;27567;-63
2022/11/20 02:52:08;;;;;;;77.70;35.28;;;;;;;-5.99;78.37;100145.42;1855644;76;25377;-64
2022/11/20 02:54:34;;;;;;;83.90;36.33;;;;;;;-6.01;78.40;100145.14;1851094;76;25762;-64
2022/11/20 02:57:01;;;;;;;77.08;35.50;;;;;;;-5.99;78.45;100154.16;1841517;76;25719;-64
2022/11/20 02:59:27;;;;;;;75.90;34.20;;;;;;;-5.98;78.32;100158.91;1857782;76;25468;-63
2022/11/20 03:01:53;;;;;;;76.60;34.40;;;;;;;-5.97;78.48;100168.44;1866264;76;27460;-64
2022/11/20 03:04:19;;;;;;;81.90;34.10;;;;;;;-5.97;78.40;100156.59;1857689;76;25812;-64
2022/11/20 03:06:46;;;;;;;80.05;34.27;;;;;;;-5.96;78.47;100159.51;1854925;76;25430;-64
2022/11/20 03:09:13;;;;;;;83.97;36.17;;;;;;;-5.95;78.55;100154.52;1857512;76;25585;-64
2022/11/20 03:11:39;;;;;;;77.45;33.67;;;;;;;-5.93;78.35;100161.71;1860739;76;26029;-64
2022/11/20 03:14:05;;;;;;;78.67;34.18;;;;;;;-5.94;78.48;100158.28;1864632;76;27506;-64
2022/11/20 03:16:32;;;;;;;70.10;33.13;;;;;;;-5.93;78.41;100162.52;1877781;76;25419;-64
2022/11/20 03:19:00;;;;;;;73.02;34.05;;;;;;;-5.93;78.32;100159.88;1866651;76;25537;-64
2022/11/20 03:21:26;;;;;;;76.42;33.10;;;;;;;-5.95;78.27;100155.33;1862553;76;25823;-62
2022/11/20 03:23:54;;;;;;;76.37;34.63;;;;;;;-5.95;78.13;100158.48;1862236;76;25687;-61
2022/11/20 03:26:24;;;;;;;81.67;35.73;;;;;;;-5.97;78.12;100153.95;1854216;76;27515;-62
2022/11/20 03:28:54;;;;;;;74.67;34.98;;;;;;;-6.01;77.94;100149.58;1869404;76;25757;-62
2022/11/20 03:31:28;;;;;;;76.07;32.03;;;;;;;-6.02;77.73;100151.41;1857750;76;25431;-62
2022/11/20 03:33:56;;;;;;;79.25;33.55;;;;;;;-6.05;77.82;100151.81;1848009;76;25786;-62
2022/11/20 03:36:22;;;;;;;83.87;36.23;;;;;;;-6.06;78.00;100145.42;1848113;76;25692;-62
2022/11/20 03:38:49;;;;;;;77.30;34.80;;;;;;;-6.08;77.99;100142.19;1861256;76;27527;-63
2022/11/20 03:41:20;;;;;;;78.07;33.35;;;;;;;-6.11;77.92;100136.84;1857754;76;25986;-63
2022/11/20 03:43:53;;;;;;;69.82;33.18;;;;;;;-6.10;77.90;100141.59;1860626;76;25464;-63
2022/11/20 03:46:20;;;;;;;79.62;35.35;;;;;;;-6.12;77.76;100141.79;1788637;79;25738;-64
2022/11/20 03:48:47;;;;;;;74.85;35.13;;;;;;;-6.12;77.86;100142.30;1843948;76;25860;-63
2022/11/20 03:51:21;;;;;;;68.90;32.85;;;;;;;-6.14;77.75;100139.88;1872478;76;27438;-63
2022/11/20 03:53:50;;;;;;;73.50;33.42;;;;;;;-6.17;77.68;100144.22;1856758;76;25754;-62
2022/11/20 03:56:20;;;;;;;78.87;34.53;;;;;;;-6.17;77.70;100145.53;1844747;76;25636;-63
2022/11/20 03:58:47;;;;;;;75.57;33.05;;;;;;;-6.18;77.99;100144.42;1841464;77;25463;-63
2022/11/20 04:01:21;;;;;;;72.82;34.35;;;;;;;-6.19;77.88;100142.30;1843264;76;25660;-64
2022/11/20 04:03:49;;;;;;;73.45;33.78;;;;;;;-6.23;77.73;100141.90;1794944;79;27556;-64
2022/11/20 04:06:28;;;;;;;73.75;33.18;;;;;;;-6.26;77.72;100136.23;1859550;76;26436;-64
2022/11/20 04:08:57;;;;;;;69.62;32.55;;;;;;;-6.27;77.65;100138.55;1863452;76;25505;-64
2022/11/20 04:11:28;;;;;;;74.58;33.00;;;;;;;-6.30;77.62;100136.31;1863835;76;25451;-64
2022/11/20 04:14:01;;;;;;;67.32;31.37;;;;;;;-6.36;77.46;100130.03;1853365;76;25686;-64
2022/11/20 04:16:31;;;;;;;67.78;31.87;;;;;;;-6.41;77.70;100125.37;1857735;76;29761;-64
2022/11/20 04:19:02;;;;;;;65.10;31.25;;;;;;;-6.43;77.89;100124.77;1806140;78;25613;-63
2022/11/20 04:21:29;;;;;;;71.77;31.87;;;;;;;-6.49;78.19;100121.61;1859677;76;25835;-64
2022/11/20 04:23:56;;;;;;;69.32;30.80;;;;;;;-6.49;78.18;100122.92;1850202;76;25512;-64
2022/11/20 04:26:28;;;;;;;71.53;31.35;;;;;;;-6.51;78.44;100121.52;1848316;76;25561;-64
2022/11/20 04:28:56;;;;;;;61.83;30.45;;;;;;;-6.51;78.51;100119.69;1866221;76;27502;-64
2022/11/20 04:31:27;;;;;;;65.95;28.75;;;;;;;-6.52;78.59;100119.89;1864439;76;25457;-64
2022/11/20 04:33:53;;;;;;;67.35;28.80;;;;;;;-6.53;78.51;100118.28;1841681;76;25443;-64
2022/11/20 04:36:26;;;;;;;61.68;30.02;;;;;;;-6.55;78.62;100120.28;1851179;76;25668;-64
2022/11/20 04:38:57;;;;;;;66.82;30.62;;;;;;;-6.54;78.59;100117.97;1851282;76;25565;-64
2022/11/20 04:41:28;;;;;;;72.32;31.50;;;;;;;-6.54;78.46;100110.08;1856906;76;27608;-64
2022/11/20 04:44:02;;;;;;;64.10;31.15;;;;;;;-6.56;78.38;100105.01;1856181;76;25533;-65
2022/11/20 04:46:34;;;;;;;61.50;28.65;;;;;;;-6.58;78.35;100108.36;1850315;76;25426;-64
2022/11/20 04:49:00;;;;;;;68.47;30.15;;;;;;;-6.58;78.34;100109.16;1775303;79;25485;-64
2022/11/20 04:51:27;;;;;;;65.15;29.55;;;;;;;-6.60;78.33;100104.61;1866236;76;25766;-62
2022/11/20 04:53:54;;;;;;;61.70;29.23;;;;;;;-6.59;78.26;100107.55;1848396;76;27506;-64
2022/11/20 04:56:21;;;;;;;70.78;30.37;;;;;;;-6.64;78.45;100102.08;1855907;76;25455;-63
2022/11/20 04:58:47;;;;;;;60.20;29.23;;;;;;;-6.65;78.50;100101.77;1853541;76;25494;-64
2022/11/20 05:01:17;;;;;;;63.63;27.90;;;;;;;-6.66;78.50;100095.39;1858046;76;25653;-64
2022/11/20 05:03:46;;;;;;;63.13;30.12;;;;;;;-6.68;78.49;100085.58;1851295;76;25448;-63
2022/11/20 05:06:16;;;;;;;63.20;28.43;;;;;;;-6.70;78.28;100083.14;1858192;76;28041;-63
2022/11/20 05:08:42;;;;;;;69.40;30.50;;;;;;;-6.73;78.28;100084.85;1873995;76;25707;-63
2022/11/20 05:11:17;;;;;;;63.68;28.57;;;;;;;-6.76;78.13;100091.34;1858255;76;25328;-63
2022/11/20 05:13:43;;;;;;;62.78;30.00;;;;;;;-6.78;78.31;100092.53;1796461;79;25839;-63
2022/11/20 05:16:17;;;;;;;70.83;30.65;;;;;;;-6.83;78.33;100085.23;1859057;76;25546;-63
2022/11/20 05:18:44;;;;;;;67.65;31.33;;;;;;;-6.86;78.38;100084.34;1847935;76;27543;-63
2022/11/20 05:21:12;;;;;;;65.70;30.12;;;;;;;-6.85;78.37;100086.45;1851142;76;25704;-63
2022/11/20 05:23:40;;;;;;;65.50;30.92;;;;;;;-6.89;78.45;100089.99;1858925;75;25439;-63
2022/11/20 05:26:13;;;;;;;67.55;30.37;;;;;;;-6.91;78.35;100088.08;1877822;76;25547;-63
2022/11/20 05:28:40;;;;;;;62.90;30.08;;;;;;;-6.93;78.39;100085.32;1857675;76;25580;-63
2022/11/20 05:31:09;;;;;;;71.07;30.88;;;;;;;-6.96;78.38;100078.14;1850123;76;27442;-63
2022/11/20 05:33:36;;;;;;;66.92;29.55;;;;;;;-6.97;78.44;100087.54;1841855;77;25447;-63
2022/11/20 05:36:05;;;;;;;65.47;30.27;;;;;;;-6.99;78.50;100085.62;1857677;76;25386;-63
2022/11/20 05:38:32;;;;;;;71.75;31.68;;;;;;;-7.02;78.50;100092.07;1860783;76;31435;-63
2022/11/20 05:41:15;;;;;;;65.57;30.57;;;;;;;-7.02;78.41;100086.81;1839161;75;26003;-63
2022/11/20 05:43:45;;;;;;;62.15;29.70;;;;;;;-7.03;78.38;100076.01;1851174;76;27486;-62
2022/11/20 05:46:16;;;;;;;63.70;30.40;;;;;;;-7.03;78.55;100079.12;1854862;76;25567;-63
2022/11/20 05:48:44;;;;;;;64.80;30.10;;;;;;;-7.02;78.67;100082.06;1860863;76;25730;-63
2022/11/20 05:51:17;;;;;;;64.10;29.72;;;;;;;-7.03;78.60;100079.95;1861641;76;25543;-63
2022/11/20 05:53:44;;;;;;;69.82;30.15;;;;;;;-7.02;78.63;100078.92;1851700;76;25425;-64
2022/11/20 05:56:18;;;;;;;68.02;29.37;;;;;;;-7.00;78.68;100080.05;1851023;76;27495;-63
2022/11/20 05:58:47;;;;;;;63.95;29.57;;;;;;;-7.01;78.54;100074.50;1854899;76;25418;-63
2022/11/20 06:01:21;;;;;;;66.65;29.60;;;;;;;-7.01;78.62;100079.75;1864666;76;25813;-64
2022/11/20 06:03:50;;;;;;;60.88;27.25;;;;;;;-7.00;78.65;100081.36;1858030;76;25624;-63
2022/11/20 06:06:19;;;;;;;65.45;29.32;;;;;;;-7.02;78.54;100075.49;1855477;76;25828;-63
2022/11/20 06:08:47;;;;;;;61.95;29.55;;;;;;;-7.02;78.47;100083.38;1855049;76;27439;-64
2022/11/20 06:11:16;;;;;;;62.75;29.57;;;;;;;-7.03;78.26;100077.32;1854821;76;25592;-64
2022/11/20 06:13:45;;;;;;;67.87;31.17;;;;;;;-7.02;78.16;100082.06;1854043;76;25807;-63
2022/11/20 06:16:15;;;;;;;63.47;29.43;;;;;;;-7.07;77.89;100070.82;1860117;76;25480;-63
2022/11/20 06:18:42;;;;;;;63.90;31.00;;;;;;;-7.07;77.89;100070.82;1854308;76;25508;-63
2022/11/20 06:21:17;;;;;;;65.87;31.33;;;;;;;-7.09;78.26;100071.53;1853912;76;27546;-63
2022/11/20 06:23:45;;;;;;;63.90;29.45;;;;;;;-7.12;78.36;100060.60;1854862;76;25520;-63
2022/11/20 06:26:18;;;;;;;64.87;29.07;;;;;;;-7.13;78.49;100069.00;1855092;76;25794;-63
2022/11/20 06:28:45;;;;;;;61.60;29.92;;;;;;;-7.11;78.53;100068.80;1860766;76;25383;-63
2022/11/20 06:31:16;;;;;;;66.82;29.92;;;;;;;-7.12;78.63;100073.75;1851093;76;25659;-64
2022/11/20 06:33:44;;;;;;;63.08;30.30;;;;;;;-7.11;78.65;100060.92;1849072;76;27665;-63
2022/11/20 06:36:15;;;;;;;63.23;29.63;;;;;;;-7.08;78.75;100068.39;1852660;76;25499;-63
2022/11/20 06:38:43;;;;;;;63.17;29.85;;;;;;;-7.06;78.83;100069.82;1867274;76;25786;-63
2022/11/20 06:41:14;;;;;;;64.30;29.75;;;;;;;-7.04;78.96;100067.80;1862969;76;25474;-62
2022/11/20 06:43:42;;;;;;;64.22;30.05;;;;;;;-7.00;78.95;100070.36;1873239;76;25438;-62
2022/11/20 06:46:11;;;;;;;70.83;29.90;;;;;;;-6.95;79.01;100076.31;1857814;76;27489;-63
2022/11/20 06:48:39;;;;;;;65.87;29.48;;;;;;;-6.92;79.05;100065.91;1854866;76;25720;-62
2022/11/20 06:51:08;;;;;;;65.30;30.70;;;;;;;-6.92;79.07;100070.66;1862587;76;25528;-62
2022/11/20 06:53:36;;;;;;;66.28;32.28;;;;;;;-6.85;79.17;100065.41;1785063;78;26079;-62
2022/11/20 06:56:03;;;;;;;49.00;23.30;;;;;;;-6.80;79.22;100073.00;1860991;76;25415;-63
2022/11/20 06:58:33;;;;;;;75.83;32.00;;;;;;;-6.80;79.12;100061.16;1860983;76;27541;-61
2022/11/20 07:01:02;;;;;;;70.03;31.45;;;;;;;-6.75;79.28;100057.94;1856930;76;25904;-62
2022/11/20 07:03:28;;;;;;;;;;;;;;;-6.66;79.58;100058.04;1873220;76;25530;-63
2022/11/20 07:06:01;;;;;;;60.28;25.97;;;;;;;-6.57;79.79;100057.36;1862989;76;25772;-71
2022/11/20 07:08:27;;;;;;;69.00;30.95;;;;;;;-6.52;79.76;100058.88;1864526;76;25388;-63
2022/11/20 07:11:01;;;;;;;66.40;31.57;;;;;;;-6.44;79.67;100067.06;1858701;76;27397;-63
2022/11/20 07:13:29;;;;;;;68.72;31.62;;;;;;;-6.39;79.65;100058.85;1855925;76;25728;-64
2022/11/20 07:16:03;;;;;;;64.50;32.10;;;;;;;-6.32;79.69;100053.59;1866588;76;25385;-63
2022/11/20 07:18:30;;;;;;;71.45;31.87;;;;;;;-6.25;79.69;100054.91;1854724;76;25714;-64
2022/11/20 07:20:56;;;;;;;71.47;32.00;;;;;;;-6.19;79.62;100044.88;1851060;76;25394;-64
2022/11/20 07:23:22;;;;;;;70.10;32.35;;;;;;;-6.12;79.77;100051.45;1828850;76;29807;-65
2022/11/20 07:25:48;;;;;;;65.80;31.85;;;;;;;-6.04;80.05;100048.09;1776596;79;25796;-65
2022/11/20 07:28:14;;;;;;;65.10;31.42;;;;;;;-5.93;79.77;100049.77;1856854;76;25376;-66
2022/11/20 07:30:41;;;;;;;70.80;33.05;;;;;;;-5.83;79.78;100039.61;1857788;76;26024;-64
2022/11/20 07:33:07;;;;;;;69.42;30.95;;;;;;;-5.67;79.92;100044.91;1864674;76;25429;-64
2022/11/20 07:35:33;;;;;;;67.80;31.68;;;;;;;-5.39;81.11;100043.30;1844213;76;27491;-64
2022/11/20 07:38:00;;;;;;;65.85;31.12;;;;;;;-5.07;81.25;100042.83;1850959;76;25356;-64
2022/11/20 07:40:27;;;;;;;63.60;31.27;;;;;;;-4.79;81.21;100042.14;1861980;76;25402;-64
2022/11/20 07:42:56;;;;;;;66.33;31.57;;;;;;;-4.39;82.62;100039.19;1845298;76;25459;-65
2022/11/20 07:45:24;;;;;;;69.00;32.93;;;;;;;-4.00;81.87;100037.20;1857940;76;25705;-66
2022/11/20 07:47:51;;;;;;;68.10;33.25;;;;;;;-3.66;81.03;100036.33;1861358;76;27430;-66
2022/11/20 07:50:20;;;;;;;57.55;30.08;;;;;;;-3.31;79.77;100043.13;1868303;76;25487;-65
2022/11/20 07:52:46;;;;;;;40.28;21.37;;;;;;;-2.88;79.92;100040.83;1780070;79;25344;-66
2022/11/20 07:55:13;;;;;;;61.02;29.55;;;;;;;-2.58;79.26;100041.80;1857527;76;25461;-66
2022/11/20 07:57:40;;;;;;;54.45;28.83;;;;;;;-2.18;79.09;100027.88;1780755;79;25379;-67
2022/11/20 08:00:10;;;;;;;56.73;28.92;;;;;;;-1.89;77.79;100033.58;1847434;76;29748;-66
2022/11/20 08:02:41;;;;;;;61.45;31.60;;;;;;;-1.66;75.57;100035.89;1843467;76;25542;-66
2022/11/20 08:05:10;;;;;;;59.40;30.43;;;;;;;-1.33;77.11;100029.09;1844696;76;25829;-66
2022/11/20 08:07:38;;;;;;;58.92;30.92;;;;;;;-0.92;77.01;100034.34;1866357;76;25755;-67
2022/11/20 08:10:06;;;;;;;54.25;28.73;;;;;;;-0.53;76.80;100026.50;1793100;79;25369;-66
2022/11/20 08:15:17;;;;;;;57.75;30.85;;;;;;;0.10;73.30;100032.46;1806589;77;27387;-67
2022/11/20 08:17:45;;;;;;;56.30;28.77;;;;;;;0.27;72.24;100025.77;1769792;79;25423;-68
2022/11/20 08:20:12;;;;;;;56.00;29.55;;;;;;;0.44;71.70;100021.72;1863320;76;27746;-66
2022/11/20 08:22:40;;;;;;;52.70;28.67;;;;;;;0.71;71.39;100026.55;1864393;76;25560;-67
2022/11/20 08:25:08;;;;;;;53.78;29.42;;;;;;;0.96;70.75;100027.08;1851046;76;28059;-67
2022/11/20 08:27:34;;;;;;;51.35;28.45;;;;;;;1.06;70.11;100033.30;1856255;76;25840;-67
2022/11/20 08:30:00;;;;;;;52.55;28.65;;;;;;;1.27;69.64;100026.29;1774309;79;25391;-67
2022/11/20 08:32:26;;;;;;;53.28;28.55;;;;;;;1.31;68.55;100029.25;1807126;79;25816;-67
2022/11/20 08:34:53;;;;;;;49.65;28.25;;;;;;;1.60;70.08;100025.77;1805709;78;25390;-66
2022/11/20 08:37:19;;;;;;;54.83;27.67;;;;;;;1.87;68.48;100024.86;1838553;77;27487;-66
2022/11/20 08:39:46;;;;;;;53.33;29.27;;;;;;;1.99;68.08;100018.00;1806055;79;25488;-66
2022/11/20 08:42:13;;;;;;;51.00;27.50;;;;;;;2.19;67.58;100010.63;1777196;79;26229;-66
2022/11/20 08:44:39;;;;;;;49.18;27.80;;;;;;;2.50;67.15;100011.55;1779132;79;26291;-66
2022/11/20 08:47:06;;;;;;;48.78;27.42;;;;;;;2.68;65.93;100004.94;1786965;79;25404;-66
2022/11/20 08:49:32;;;;;;;46.40;27.73;;;;;;;2.61;64.93;100009.20;1797595;79;28207;-67
2022/11/20 08:51:58;;;;;;;54.20;28.75;;;;;;;2.74;64.38;100001.23;1777164;78;25987;-67
2022/11/20 08:54:24;;;;;;;48.85;27.77;;;;;;;2.72;62.80;100002.55;1790626;79;25395;-66
2022/11/20 08:56:51;;;;;;;50.45;27.77;;;;;;;2.82;64.18;100003.91;1778398;79;25502;-65
2022/11/20 08:59:17;;;;;;;47.40;27.35;;;;;;;3.06;64.12;100006.87;1793115;79;25438;-66
2022/11/20 09:01:43;;;;;;;46.15;27.42;;;;;;;3.18;63.07;100008.78;1780170;79;27473;-66
2022/11/20 09:04:11;;;;;;;48.58;28.42;;;;;;;3.20;62.43;100013.83;1812282;78;25747;-66
2022/11/20 09:06:40;;;;;;;46.20;27.20;;;;;;;3.26;62.58;100017.33;1855758;76;25443;-67
2022/11/20 09:09:06;;;;;;;44.23;26.10;;;;;;;3.38;63.54;100007.16;1855655;76;25801;-67
2022/11/20 09:11:33;;;;;;;42.85;26.27;;;;;;;3.77;63.82;100011.95;1801040;78;25458;-67
2022/11/20 09:14:00;;;;;;;46.92;26.97;;;;;;;3.60;61.40;99993.52;1797174;78;27463;-67
2022/11/20 09:16:27;;;;;;;45.73;27.37;;;;;;;3.53;60.66;99986.30;1841410;76;25478;-67
2022/11/20 09:18:53;;;;;;;50.28;27.32;;;;;;;3.50;60.43;99986.30;1855487;76;25444;-67
2022/11/20 09:21:19;;;;;;;45.63;26.30;;;;;;;3.61;61.29;99981.75;1862564;76;25542;-67
2022/11/20 09:23:45;;;;;;;41.60;26.17;;;;;;;3.75;61.26;99968.62;1853628;76;25328;-68
2022/11/20 09:26:14;;;;;;;42.25;25.17;;;;;;;3.89;60.86;99974.98;1803809;79;27481;-66
2022/11/20 09:28:41;;;;;;;45.20;26.73;;;;;;;4.01;60.49;99970.67;1854718;76;25667;-67
2022/11/20 09:31:11;;;;;;;45.08;26.15;;;;;;;4.19;60.27;99971.96;1867555;76;25421;-67
2022/11/20 09:33:37;;;;;;;45.08;26.55;;;;;;;4.41;60.54;99982.83;1858255;76;25688;-67
2022/11/20 09:36:05;;;;;;;44.50;27.40;;;;;;;4.74;60.45;99966.58;1865536;76;25398;-67
2022/11/20 09:38:31;;;;;;;41.92;26.17;;;;;;;5.17;60.92;99957.97;1852651;76;27533;-68
2022/11/20 09:41:04;;;;;;;46.48;28.38;;;;;;;5.55;58.78;99957.64;1856329;76;25470;-68
2022/11/20 09:44:03;;;;;;;41.40;25.80;;;;;;;5.68;58.74;99952.67;1855471;76;25730;-69
2022/11/20 09:46:41;;;;;;;42.03;25.95;;;;;;;6.06;59.19;99948.78;1857953;76;25524;-68
2022/11/20 09:49:21;;;;;;;41.33;24.72;;;;;;;6.40;57.13;99953.20;1850335;76;25417;-68
2022/11/20 09:52:22;;;;;;;42.40;26.25;;;;;;;6.45;56.33;99943.73;1806756;78;27574;-68
2022/11/20 09:54:50;;;;;;;40.30;25.08;;;;;;;6.59;56.92;99939.77;1781457;79;25852;-69
2022/11/20 09:57:24;;;;;;;46.33;27.35;;;;;;;7.16;57.13;99947.80;1807120;78;25421;-69
2022/11/20 09:59:56;;;;;;;40.33;25.55;;;;;;;7.57;57.13;99944.39;1807323;78;25854;-69
2022/11/20 10:02:30;;;;;;;38.88;25.45;;;;;;;7.70;52.88;99940.14;1808749;78;25649;-69
2022/11/20 10:05:23;;;;;;;40.58;25.85;;;;;;;7.44;53.15;99948.13;1809996;78;27652;-69
2022/11/20 10:07:57;;;;;;;40.08;25.27;;;;;;;7.40;53.81;99949.79;1804453;78;25677;-69
2022/11/20 10:10:41;;;;;;;39.83;26.40;;;;;;;7.16;52.92;99943.20;1793732;78;26089;-69
2022/11/20 10:13:25;;;;;;;39.05;25.62;;;;;;;7.47;55.00;99944.02;1785031;78;25811;-68
2022/11/20 10:16:16;;;;;;;38.58;25.27;;;;;;;7.85;54.78;99945.23;1804909;78;25812;-68
2022/11/20 10:19:06;;;;;;;41.75;26.85;;;;;;;8.32;53.73;99944.53;1785491;78;27515;-68
2022/11/20 10:21:41;;;;;;;;;;;;;;;8.64;53.19;99945.49;1795095;78;25716;-68
2022/11/20 10:24:47;;;;;;;42.30;26.52;;;;;;;8.57;52.08;99945.91;1777612;78;25708;-69
2022/11/20 10:27:52;;;;;;;42.03;27.42;;;;;;;8.89;53.35;99939.28;1790867;78;25555;-69
2022/11/20 10:30:24;;;;;;;40.38;26.52;;;;;;;9.59;52.67;99936.44;1857841;76;25448;-69
2022/11/20 10:33:14;;;;;;;42.83;27.32;;;;;;;10.13;52.20;99928.75;1846328;76;28528;-69
2022/11/20 10:36:07;;;;;;;42.88;26.65;;;;;;;10.29;51.26;99923.94;1838729;76;27289;-69
2022/11/20 10:38:45;;;;;;;42.53;28.85;;;;;;;10.54;50.84;99924.86;1871243;76;25767;-69
2022/11/20 10:41:32;;;;;;;41.40;27.40;;;;;;;11.07;49.50;99925.09;1860853;76;25614;-69
2022/11/20 10:47:15;;;;;;;44.70;28.12;;;;;;;11.28;48.79;99914.94;1808436;77;27610;-68
2022/11/20 10:49:46;;;;;;;41.60;26.33;;;;;;;10.94;46.70;99921.44;1792140;79;25365;-69
2022/11/20 10:52:35;;;;;;;40.23;28.62;;;;;;;10.81;47.07;99916.45;1784477;79;25883;-69
2022/11/20 10:55:13;;;;;;;42.23;28.07;;;;;;;10.70;47.50;99912.47;1789340;79;26137;-69
2022/11/20 10:57:55;;;;;;;39.42;27.55;;;;;;;10.56;46.58;99911.28;1846963;76;25800;-70
2022/11/20 11:00:22;;;;;;;41.77;28.17;;;;;;;10.26;46.81;99906.20;1851209;76;27549;-70
2022/11/20 11:02:53;;;;;;;47.73;28.67;;;;;;;10.31;48.08;99895.23;1848253;76;25802;-69
2022/11/20 11:05:43;;;;;;;41.55;28.45;;;;;;;10.49;47.31;99903.38;1859719;76;25449;-68
2022/11/20 11:08:14;;;;;;;42.20;27.85;;;;;;;10.46;47.28;99904.83;1858701;76;26173;-67
2022/11/20 11:10:54;;;;;;;41.60;28.45;;;;;;;10.55;46.45;99902.91;1841478;76;25659;-68
2022/11/20 11:13:28;;;;;;;42.43;28.85;;;;;;;10.33;46.76;99908.47;1855588;76;27500;-68
2022/11/20 11:15:55;;;;;;;39.60;27.10;;;;;;;10.10;46.85;99901.25;1779870;79;25886;-68
2022/11/20 11:18:31;;;;;;;41.70;26.33;;;;;;;10.11;47.65;99903.39;1867103;75;25895;-69
2022/11/20 11:21:01;;;;;;;41.15;26.00;;;;;;;10.26;47.54;99906.20;1737007;81;26074;-69
2022/11/20 11:23:41;;;;;;;42.65;26.17;;;;;;;10.12;46.45;99902.86;1716390;81;25897;-69
2022/11/20 11:26:23;;;;;;;41.28;27.90;;;;;;;10.08;47.31;99908.88;1710994;83;27653;-74
2022/11/20 11:29:03;;;;;;;39.27;26.68;;;;;;;10.01;47.00;99904.50;1745540;80;25249;-75
2022/11/20 11:31:34;;;;;;;43.05;27.05;;;;;;;10.16;45.84;99899.19;1712202;82;25594;-73
2022/11/20 11:34:16;;;;;;;42.40;27.95;;;;;;;9.76;45.70;99898.47;1727514;82;25875;-74
2022/11/20 11:36:58;;;;;;;40.10;27.05;;;;;;;9.68;47.26;99903.51;1714332;82;25798;-75